x

Smith Island, Wa (sisw1) Weather Station

2:00am - Tue 26th Jul 2016 All times are PDT. -7 hours from GMT.

  • Wind
    17mph, 20mph gusts
  • 空気 Temp 55°f
  • Sea Pressure 1018.7mb
  • Smith Island, Wa
  • Smith Island, Wa

More Historic Weather Station data

Upgrade to MSW Pro to gain access to the past 30 days of data for over 8000 Wavebouys and Weather Stations around the globe.

Join Pro

Comparision Forecast

View Surf forecast
   
Tue 07/26 2:00am 17 20 mph 1018.7mb 55f
1:00am 6 8 mph 1018.5mb 55f
12:00am 13 14 mph 1018mb 55f
Mon 07/25 11:00pm 24 29 mph 1017.3mb 56f
10:00pm 20 26 mph 1017.3mb 55f
9:00pm 17 24 mph 1017mb 55f
8:00pm 23 32 mph 1016.7mb 55f
7:00pm 20 23 mph 1016.9mb 56f
6:00pm 21 22 mph 1017.7mb 58f
5:00pm 14 17 mph 1017.9mb 59f
4:00pm 13 15 mph 1018mb 60f
3:00pm 6 7 mph 1018.5mb 60f
2:00pm 7 9 mph 1018.7mb 60f
1:00pm 6 7 mph 1018.9mb 58f
12:00pm 6 7 mph 1019.2mb 57f
11:00am 7
mph
1019.1mb 57f
10:00am 7 8 mph 1018.9mb 55f
9:00am 11
mph
1018.7mb 55f
8:00am 11 13 mph 1018.5mb 55f
7:00am 9 10 mph 1018mb 54f
6:00am 8 9 mph 1017.7mb 53f
5:00am 8
mph
1017.4mb 53f
4:00am 6 7 mph 1017.2mb 53f
3:00am 8 9 mph 1017mb 54f
2:00am 9
mph
1016.8mb 54f
1:00am 10 11 mph 1016.9mb 54f
12:00am 11 16 mph 1016.8mb 55f
Sun 07/24 11:00pm 16 20 mph 1016.9mb 55f
10:00pm 15 18 mph 1017.1mb 55f
9:00pm 16 21 mph 1016.9mb 55f
8:00pm 16 21 mph 1017mb 56f
7:00pm 14 17 mph 1017.2mb 57f
6:00pm 9 10 mph 1017.8mb 58f
5:00pm 8 9 mph 1018.5mb 57f
4:00pm 6 8 mph 1019mb 58f
3:00pm 6 8 mph 1019.3mb 58f
2:00pm 8 9 mph 1019.7mb 59f
1:00pm 6 7 mph 1020.1mb 59f
12:00pm 2
mph
1020.4mb 57f
11:00am 5 6 mph 1020.7mb 55f
10:00am 3 5 mph 1020.9mb 54f
9:00am 2 3 mph 1021mb 52f
8:00am 2 3 mph 1020.8mb 52f
7:00am 2
mph
1020.9mb 51f
6:00am 2 3 mph 1021mb 51f
5:00am 6 8 mph 1021mb 52f
4:00am 14 16 mph 1021.2mb 53f
3:00am 13 15 mph 1021.4mb 54f
2:00am 2 3 mph 1022mb 54f
1:00am 13 14 mph 1022.2mb 54f
12:00am 10 13 mph 1022.7mb 54f
Sat 07/23 11:00pm 14 18 mph 1022.9mb 54f
10:00pm 14 18 mph 1023mb 54f
9:00pm 15 18 mph 1023mb 55f
8:00pm 15 17 mph 1023.2mb 56f
7:00pm 14 15 mph 1023.3mb 57f
6:00pm 14 16 mph 1023.8mb 58f
5:00pm 14 15 mph 1024.5mb 58f
4:00pm 11 13 mph 1025mb 60f
3:00pm 11
mph
1025.2mb 62f
2:00pm 7 9 mph 1025.2mb 62f
1:00pm 9 10 mph 1025.2mb 61f
12:00pm 13 16 mph 1025.1mb 59f
11:00am 10 14 mph 1025.4mb 58f
10:00am 14 15 mph 1025mb 56f
9:00am 18 21 mph 1024.6mb 55f
8:00am 21 23 mph 1024.2mb 55f
7:00am 16 21 mph 1024.2mb 54f
6:00am 15 21 mph 1024mb 55f
5:00am 16 17 mph 1024mb 54f
4:00am 15 17 mph 1024.1mb 54f
3:00am 16 17 mph 1024.3mb 54f
2:00am 14
mph
1024.6mb 54f
1:00am 15 16 mph 1024.8mb 55f
12:00am 15 20 mph 1024.7mb 56f
Fri 07/22 11:00pm 17 20 mph 1024.7mb 55f
10:00pm 18 20 mph 1024.8mb 55f
9:00pm 16 18 mph 1024.7mb 55f
8:00pm 18 21 mph 1024.7mb 56f
7:00pm 16 18 mph 1024.5mb 57f
6:00pm 22 24 mph 1024.4mb 57f
5:00pm 23 25 mph 1024.3mb 57f
4:00pm 23 26 mph 1024.4mb 57f
3:00pm 21 22 mph 1024.5mb 57f
2:00pm 21 23 mph 1024.2mb 57f
1:00pm 16 21 mph 1024.1mb 58f
12:00pm 15 16 mph 1023.7mb 57f
11:00am 14 18 mph 1023.2mb 58f